Oakland, CA

3:29 PM PDT on July 23, 2016 (GMT -0700)
Alameda | | Change Station

Elev 13 ft 37.77 °N, 122.29 °W | Updated 332 days ago

Clear
Clear
70 °F
Feels Like 70 °F
N
16
Wind Variable Wind from WSW
Gusts mph

Today
High -- | Low -- °F
--% Chance of Precip.
Yesterday
High -- | Low -- °F
Precip. -- in
Pressure 29.93 in
Visibility 10.0 miles
Clouds Clear
Dew Point 54 °F
Humidity 57%
Rainfall in
Snow Depth Not available.
6:05 AM 8:25 PM
Waning Gibbous, 82% visible
METAR KOAK 232153Z 29014KT 10SM CLR 23/13 A2992 RMK AO2 SLP133 T02330133
Pressure 29.93 in
Visibility 10.0 miles
Clouds Clear
Dew Point 54 °F
Humidity 57%
Rainfall in
Snow Depth Not available.
6:05 AM 8:25 PM
Waning Gibbous, 82% visible
METAR KOAK 232153Z 29014KT 10SM CLR 23/13 A2992 RMK AO2 SLP133 T02330133

10-Day Weather Forecast

Almanac

Astronomy

Jul. 23, 2016 Rise Set
Actual Time
Civil Twilight
Nautical Twilight
Astronomical Twilight
Moon
Length of Visible Light
Length of Day
Tomorrow will be .
, % of the Moon is Illuminated

Today's Extremes

State Highs State Lows

Community

WunderPhotos

Upload Photos

1,926,948 photos uploaded!

WunderBlog® & News

Nearby

Air Quality

  Air Quality AQ Index Pollutant
Not available.

Snow Depth

Station Depth Elevation

Earthquake Activity

City Distance Mag. Time & Date
Minimum magnitude displayed is 2.5.

Coastal Water Temperatures

Place Temperature

Stations

Nearby Weather Stations

Station Location Temp. Windchill Dew Point Humidity Wind Precip. Elev Updated Type
                   

Watches & Warnings

There are currently no watches in effect.